sensor_id;sensor_type;location;lat;lon;timestamp;P1;durP1;ratioP1;P2;durP2;ratioP2
17024;SDS011;8629;42.496;25.620;2023-03-01T00:01:35;0.27;;;0.27;;
17024;SDS011;8629;42.496;25.620;2023-03-01T00:04:02;0.50;;;0.50;;
17024;SDS011;8629;42.496;25.620;2023-03-01T00:06:29;0.40;;;0.40;;
17024;SDS011;8629;42.496;25.620;2023-03-01T00:08:57;0.13;;;0.13;;
17024;SDS011;8629;42.496;25.620;2023-03-01T00:11:25;1.40;;;0.30;;
17024;SDS011;8629;42.496;25.620;2023-03-01T00:13:53;0.30;;;0.30;;
17024;SDS011;8629;42.496;25.620;2023-03-01T00:16:23;0.20;;;0.20;;
17024;SDS011;8629;42.496;25.620;2023-03-01T00:18:51;0.20;;;0.20;;
17024;SDS011;8629;42.496;25.620;2023-03-01T00:21:20;0.40;;;0.40;;
17024;SDS011;8629;42.496;25.620;2023-03-01T00:23:47;0.20;;;0.20;;
17024;SDS011;8629;42.496;25.620;2023-03-01T00:26:16;0.30;;;0.30;;
17024;SDS011;8629;42.496;25.620;2023-03-01T00:28:44;0.20;;;0.20;;
17024;SDS011;8629;42.496;25.620;2023-03-01T00:31:12;0.20;;;0.20;;
17024;SDS011;8629;42.496;25.620;2023-03-01T00:33:40;0.40;;;0.40;;
17024;SDS011;8629;42.496;25.620;2023-03-01T00:36:07;0.70;;;0.70;;
17024;SDS011;8629;42.496;25.620;2023-03-01T00:38:34;1.10;;;0.60;;
17024;SDS011;8629;42.496;25.620;2023-03-01T00:41:05;0.50;;;0.47;;
17024;SDS011;8629;42.496;25.620;2023-03-01T00:43:35;0.17;;;0.17;;
17024;SDS011;8629;42.496;25.620;2023-03-01T00:46:02;0.30;;;0.30;;
17024;SDS011;8629;42.496;25.620;2023-03-01T00:48:30;0.30;;;0.30;;
17024;SDS011;8629;42.496;25.620;2023-03-01T00:50:56;0.10;;;0.10;;
17024;SDS011;8629;42.496;25.620;2023-03-01T00:53:23;0.33;;;0.33;;
17024;SDS011;8629;42.496;25.620;2023-03-01T00:55:50;0.30;;;0.30;;
17024;SDS011;8629;42.496;25.620;2023-03-01T00:58:16;0.33;;;0.33;;
17024;SDS011;8629;42.496;25.620;2023-03-01T01:00:45;0.40;;;0.40;;
17024;SDS011;8629;42.496;25.620;2023-03-01T01:03:11;0.70;;;0.60;;
17024;SDS011;8629;42.496;25.620;2023-03-01T01:05:38;0.47;;;0.47;;
17024;SDS011;8629;42.496;25.620;2023-03-01T01:08:05;0.40;;;0.40;;
17024;SDS011;8629;42.496;25.620;2023-03-01T01:10:33;0.20;;;0.20;;
17024;SDS011;8629;42.496;25.620;2023-03-01T01:13:00;0.50;;;0.50;;
17024;SDS011;8629;42.496;25.620;2023-03-01T01:15:27;0.40;;;0.40;;
17024;SDS011;8629;42.496;25.620;2023-03-01T01:17:55;0.33;;;0.33;;
17024;SDS011;8629;42.496;25.620;2023-03-01T01:20:22;0.50;;;0.50;;
17024;SDS011;8629;42.496;25.620;2023-03-01T01:22:48;0.37;;;0.37;;
17024;SDS011;8629;42.496;25.620;2023-03-01T01:25:16;0.60;;;0.60;;
17024;SDS011;8629;42.496;25.620;2023-03-01T01:27:43;0.40;;;0.40;;
17024;SDS011;8629;42.496;25.620;2023-03-01T01:30:10;0.50;;;0.50;;
17024;SDS011;8629;42.496;25.620;2023-03-01T01:32:37;0.40;;;0.40;;
17024;SDS011;8629;42.496;25.620;2023-03-01T01:35:06;0.50;;;0.50;;
17024;SDS011;8629;42.496;25.620;2023-03-01T01:37:33;0.40;;;0.40;;
17024;SDS011;8629;42.496;25.620;2023-03-01T01:40:00;0.60;;;0.60;;
17024;SDS011;8629;42.496;25.620;2023-03-01T01:42:29;0.30;;;0.30;;
17024;SDS011;8629;42.496;25.620;2023-03-01T01:47:57;0.53;;;0.53;;
17024;SDS011;8629;42.496;25.620;2023-03-01T01:50:27;0.50;;;0.50;;
17024;SDS011;8629;42.496;25.620;2023-03-01T01:53:04;0.40;;;0.40;;
17024;SDS011;8629;42.496;25.620;2023-03-01T01:55:31;0.60;;;0.30;;
17024;SDS011;8629;42.496;25.620;2023-03-01T01:57:59;0.30;;;0.30;;
17024;SDS011;8629;42.496;25.620;2023-03-01T02:00:29;0.50;;;0.50;;
17024;SDS011;8629;42.496;25.620;2023-03-01T02:02:57;0.43;;;0.43;;
17024;SDS011;8629;42.496;25.620;2023-03-01T02:05:28;0.40;;;0.40;;
17024;SDS011;8629;42.496;25.620;2023-03-01T02:07:59;0.20;;;0.20;;
17024;SDS011;8629;42.496;25.620;2023-03-01T02:10:26;0.50;;;0.50;;
17024;SDS011;8629;42.496;25.620;2023-03-01T02:12:54;0.60;;;0.60;;
17024;SDS011;8629;42.496;25.620;2023-03-01T02:15:22;0.50;;;0.50;;
17024;SDS011;8629;42.496;25.620;2023-03-01T02:17:49;0.47;;;0.47;;
17024;SDS011;8629;42.496;25.620;2023-03-01T02:20:18;0.93;;;0.93;;
17024;SDS011;8629;42.496;25.620;2023-03-01T02:22:52;0.80;;;0.80;;
17024;SDS011;8629;42.496;25.620;2023-03-01T02:25:28;2.00;;;0.80;;
17024;SDS011;8629;42.496;25.620;2023-03-01T02:28:02;0.80;;;0.80;;
17024;SDS011;8629;42.496;25.620;2023-03-01T02:30:34;0.80;;;0.80;;
17024;SDS011;8629;42.496;25.620;2023-03-01T02:33:01;0.60;;;0.60;;
17024;SDS011;8629;42.496;25.620;2023-03-01T02:35:28;1.10;;;1.10;;
17024;SDS011;8629;42.496;25.620;2023-03-01T02:37:57;0.57;;;0.57;;
17024;SDS011;8629;42.496;25.620;2023-03-01T02:40:25;0.90;;;0.90;;
17024;SDS011;8629;42.496;25.620;2023-03-01T02:42:55;0.60;;;0.60;;
17024;SDS011;8629;42.496;25.620;2023-03-01T02:45:23;0.50;;;0.50;;
17024;SDS011;8629;42.496;25.620;2023-03-01T02:47:54;0.63;;;0.63;;
17024;SDS011;8629;42.496;25.620;2023-03-01T02:50:24;0.63;;;0.63;;
17024;SDS011;8629;42.496;25.620;2023-03-01T02:53:01;0.50;;;0.50;;
17024;SDS011;8629;42.496;25.620;2023-03-01T02:55:31;0.40;;;0.40;;
17024;SDS011;8629;42.496;25.620;2023-03-01T02:57:57;0.40;;;0.40;;
17024;SDS011;8629;42.496;25.620;2023-03-01T03:00:28;0.37;;;0.37;;
17024;SDS011;8629;42.496;25.620;2023-03-01T03:03:00;0.20;;;0.20;;
17024;SDS011;8629;42.496;25.620;2023-03-01T03:05:27;0.57;;;0.57;;
17024;SDS011;8629;42.496;25.620;2023-03-01T03:07:56;0.40;;;0.40;;
17024;SDS011;8629;42.496;25.620;2023-03-01T03:10:25;0.50;;;0.50;;
17024;SDS011;8629;42.496;25.620;2023-03-01T03:12:54;0.40;;;0.40;;
17024;SDS011;8629;42.496;25.620;2023-03-01T03:15:22;0.40;;;0.40;;
17024;SDS011;8629;42.496;25.620;2023-03-01T03:17:49;1.97;;;0.50;;
17024;SDS011;8629;42.496;25.620;2023-03-01T03:20:19;0.37;;;0.37;;
17024;SDS011;8629;42.496;25.620;2023-03-01T03:22:48;0.40;;;0.40;;
17024;SDS011;8629;42.496;25.620;2023-03-01T03:25:18;2.20;;;2.00;;
17024;SDS011;8629;42.496;25.620;2023-03-01T03:27:46;5.60;;;4.87;;
17024;SDS011;8629;42.496;25.620;2023-03-01T03:30:14;6.43;;;4.97;;
17024;SDS011;8629;42.496;25.620;2023-03-01T03:32:44;13.10;;;6.80;;
17024;SDS011;8629;42.496;25.620;2023-03-01T03:35:19;28.63;;;12.30;;
17024;SDS011;8629;42.496;25.620;2023-03-01T03:37:46;30.00;;;13.07;;
17024;SDS011;8629;42.496;25.620;2023-03-01T03:40:28;87.37;;;32.97;;
17024;SDS011;8629;42.496;25.620;2023-03-01T03:42:56;23.50;;;10.40;;
17024;SDS011;8629;42.496;25.620;2023-03-01T03:45:22;22.40;;;14.27;;
17024;SDS011;8629;42.496;25.620;2023-03-01T03:47:49;24.77;;;17.40;;
17024;SDS011;8629;42.496;25.620;2023-03-01T03:50:16;21.20;;;17.50;;
17024;SDS011;8629;42.496;25.620;2023-03-01T03:52:45;7.17;;;5.50;;
17024;SDS011;8629;42.496;25.620;2023-03-01T03:55:12;5.30;;;4.77;;
17024;SDS011;8629;42.496;25.620;2023-03-01T03:57:39;26.80;;;19.40;;
17024;SDS011;8629;42.496;25.620;2023-03-01T04:00:08;14.33;;;9.50;;
17024;SDS011;8629;42.496;25.620;2023-03-01T04:02:53;6.87;;;5.27;;
17024;SDS011;8629;42.496;25.620;2023-03-01T04:05:21;11.77;;;9.90;;
17024;SDS011;8629;42.496;25.620;2023-03-01T04:07:50;7.00;;;6.33;;
17024;SDS011;8629;42.496;25.620;2023-03-01T04:10:26;5.23;;;4.40;;
17024;SDS011;8629;42.496;25.620;2023-03-01T04:12:53;7.10;;;5.03;;
17024;SDS011;8629;42.496;25.620;2023-03-01T04:15:21;3.00;;;2.70;;
17024;SDS011;8629;42.496;25.620;2023-03-01T04:17:49;7.90;;;5.17;;
17024;SDS011;8629;42.496;25.620;2023-03-01T04:20:19;5.50;;;4.60;;
17024;SDS011;8629;42.496;25.620;2023-03-01T04:22:51;3.20;;;2.63;;
17024;SDS011;8629;42.496;25.620;2023-03-01T04:25:19;2.37;;;2.17;;
17024;SDS011;8629;42.496;25.620;2023-03-01T04:27:46;6.63;;;4.93;;
17024;SDS011;8629;42.496;25.620;2023-03-01T04:30:13;6.77;;;4.90;;
17024;SDS011;8629;42.496;25.620;2023-03-01T04:32:40;10.57;;;9.23;;
17024;SDS011;8629;42.496;25.620;2023-03-01T04:35:07;19.00;;;11.60;;
17024;SDS011;8629;42.496;25.620;2023-03-01T04:37:34;10.23;;;6.03;;
17024;SDS011;8629;42.496;25.620;2023-03-01T04:40:02;30.37;;;20.03;;
17024;SDS011;8629;42.496;25.620;2023-03-01T04:42:37;45.00;;;29.10;;
17024;SDS011;8629;42.496;25.620;2023-03-01T04:45:05;48.10;;;35.30;;
17024;SDS011;8629;42.496;25.620;2023-03-01T04:47:38;14.27;;;11.07;;
17024;SDS011;8629;42.496;25.620;2023-03-01T04:50:05;11.53;;;9.80;;
17024;SDS011;8629;42.496;25.620;2023-03-01T04:52:33;6.57;;;5.97;;
17024;SDS011;8629;42.496;25.620;2023-03-01T04:55:00;4.50;;;4.10;;
17024;SDS011;8629;42.496;25.620;2023-03-01T04:57:28;3.60;;;3.30;;
17024;SDS011;8629;42.496;25.620;2023-03-01T04:59:55;2.20;;;2.00;;
17024;SDS011;8629;42.496;25.620;2023-03-01T05:02:21;2.60;;;1.83;;
17024;SDS011;8629;42.496;25.620;2023-03-01T05:04:48;1.67;;;1.17;;
17024;SDS011;8629;42.496;25.620;2023-03-01T05:07:15;2.10;;;1.80;;
17024;SDS011;8629;42.496;25.620;2023-03-01T05:09:44;2.70;;;2.50;;
17024;SDS011;8629;42.496;25.620;2023-03-01T05:12:11;4.17;;;3.87;;
17024;SDS011;8629;42.496;25.620;2023-03-01T05:14:39;8.67;;;7.07;;
17024;SDS011;8629;42.496;25.620;2023-03-01T05:17:06;8.67;;;7.23;;
17024;SDS011;8629;42.496;25.620;2023-03-01T05:19:33;4.00;;;3.33;;
17024;SDS011;8629;42.496;25.620;2023-03-01T05:22:00;2.30;;;2.10;;
17024;SDS011;8629;42.496;25.620;2023-03-01T05:24:30;6.40;;;5.30;;
17024;SDS011;8629;42.496;25.620;2023-03-01T05:26:58;8.20;;;6.73;;
17024;SDS011;8629;42.496;25.620;2023-03-01T05:29:25;8.50;;;7.80;;
17024;SDS011;8629;42.496;25.620;2023-03-01T05:31:55;4.83;;;4.43;;
17024;SDS011;8629;42.496;25.620;2023-03-01T05:34:24;2.77;;;2.57;;
17024;SDS011;8629;42.496;25.620;2023-03-01T05:36:51;1.43;;;1.33;;
17024;SDS011;8629;42.496;25.620;2023-03-01T05:39:18;1.10;;;0.97;;
17024;SDS011;8629;42.496;25.620;2023-03-01T05:41:47;1.23;;;0.93;;
17024;SDS011;8629;42.496;25.620;2023-03-01T05:44:14;0.70;;;0.70;;
17024;SDS011;8629;42.496;25.620;2023-03-01T05:46:41;2.13;;;2.03;;
17024;SDS011;8629;42.496;25.620;2023-03-01T05:49:09;8.23;;;7.43;;
17024;SDS011;8629;42.496;25.620;2023-03-01T05:51:36;4.40;;;3.70;;
17024;SDS011;8629;42.496;25.620;2023-03-01T05:54:03;3.73;;;2.80;;
17024;SDS011;8629;42.496;25.620;2023-03-01T05:56:32;18.87;;;12.17;;
17024;SDS011;8629;42.496;25.620;2023-03-01T05:58:59;6.30;;;4.40;;
17024;SDS011;8629;42.496;25.620;2023-03-01T06:01:26;6.20;;;4.97;;
17024;SDS011;8629;42.496;25.620;2023-03-01T06:03:54;3.30;;;2.10;;
17024;SDS011;8629;42.496;25.620;2023-03-01T06:06:23;3.00;;;2.70;;
17024;SDS011;8629;42.496;25.620;2023-03-01T06:08:50;6.60;;;5.90;;
17024;SDS011;8629;42.496;25.620;2023-03-01T06:11:17;10.60;;;7.70;;
17024;SDS011;8629;42.496;25.620;2023-03-01T06:13:44;8.67;;;7.77;;
17024;SDS011;8629;42.496;25.620;2023-03-01T06:16:11;5.63;;;5.03;;
17024;SDS011;8629;42.496;25.620;2023-03-01T06:18:39;11.03;;;8.17;;
17024;SDS011;8629;42.496;25.620;2023-03-01T06:21:07;6.67;;;6.03;;
17024;SDS011;8629;42.496;25.620;2023-03-01T06:23:35;5.20;;;3.17;;
17024;SDS011;8629;42.496;25.620;2023-03-01T06:26:04;5.07;;;3.50;;
17024;SDS011;8629;42.496;25.620;2023-03-01T06:28:32;14.67;;;10.83;;
17024;SDS011;8629;42.496;25.620;2023-03-01T06:30:58;6.53;;;5.90;;
17024;SDS011;8629;42.496;25.620;2023-03-01T06:33:25;5.00;;;4.50;;
17024;SDS011;8629;42.496;25.620;2023-03-01T06:35:54;4.13;;;3.73;;
17024;SDS011;8629;42.496;25.620;2023-03-01T06:38:21;2.73;;;2.47;;
17024;SDS011;8629;42.496;25.620;2023-03-01T06:40:52;25.30;;;18.13;;
17024;SDS011;8629;42.496;25.620;2023-03-01T06:43:20;13.10;;;11.63;;
17024;SDS011;8629;42.496;25.620;2023-03-01T06:45:47;8.00;;;4.30;;
17024;SDS011;8629;42.496;25.620;2023-03-01T06:48:16;5.33;;;4.57;;
17024;SDS011;8629;42.496;25.620;2023-03-01T06:50:43;2.93;;;2.73;;
17024;SDS011;8629;42.496;25.620;2023-03-01T06:53:10;3.00;;;2.80;;
17024;SDS011;8629;42.496;25.620;2023-03-01T06:55:36;5.03;;;4.53;;
17024;SDS011;8629;42.496;25.620;2023-03-01T06:58:05;3.83;;;3.53;;
17024;SDS011;8629;42.496;25.620;2023-03-01T07:00:32;6.20;;;5.70;;
17024;SDS011;8629;42.496;25.620;2023-03-01T07:02:59;4.00;;;3.70;;
17024;SDS011;8629;42.496;25.620;2023-03-01T07:05:27;12.13;;;9.17;;
17024;SDS011;8629;42.496;25.620;2023-03-01T07:07:54;9.93;;;8.00;;
17024;SDS011;8629;42.496;25.620;2023-03-01T07:10:21;13.37;;;10.43;;
17024;SDS011;8629;42.496;25.620;2023-03-01T07:12:48;10.73;;;7.83;;
17024;SDS011;8629;42.496;25.620;2023-03-01T07:15:16;11.27;;;7.37;;
17024;SDS011;8629;42.496;25.620;2023-03-01T07:17:43;5.10;;;4.60;;
17024;SDS011;8629;42.496;25.620;2023-03-01T07:20:12;16.70;;;8.80;;
17024;SDS011;8629;42.496;25.620;2023-03-01T07:22:39;6.70;;;5.20;;
17024;SDS011;8629;42.496;25.620;2023-03-01T07:25:07;5.37;;;4.87;;
17024;SDS011;8629;42.496;25.620;2023-03-01T07:27:34;7.50;;;6.70;;
17024;SDS011;8629;42.496;25.620;2023-03-01T07:30:01;3.70;;;3.30;;
17024;SDS011;8629;42.496;25.620;2023-03-01T07:32:29;3.10;;;2.60;;
17024;SDS011;8629;42.496;25.620;2023-03-01T07:34:56;3.23;;;2.93;;
17024;SDS011;8629;42.496;25.620;2023-03-01T07:37:23;5.47;;;3.37;;
17024;SDS011;8629;42.496;25.620;2023-03-01T07:39:49;3.30;;;2.47;;
17024;SDS011;8629;42.496;25.620;2023-03-01T07:42:16;2.23;;;2.03;;
17024;SDS011;8629;42.496;25.620;2023-03-01T07:44:43;2.77;;;2.17;;
17024;SDS011;8629;42.496;25.620;2023-03-01T07:47:10;1.80;;;1.70;;
17024;SDS011;8629;42.496;25.620;2023-03-01T07:49:38;2.73;;;1.60;;
17024;SDS011;8629;42.496;25.620;2023-03-01T07:52:05;3.93;;;2.13;;
17024;SDS011;8629;42.496;25.620;2023-03-01T07:54:31;1.43;;;1.33;;
17024;SDS011;8629;42.496;25.620;2023-03-01T07:56:58;1.60;;;1.50;;
17024;SDS011;8629;42.496;25.620;2023-03-01T07:59:25;1.83;;;1.73;;
17024;SDS011;8629;42.496;25.620;2023-03-01T08:01:54;2.23;;;1.83;;
17024;SDS011;8629;42.496;25.620;2023-03-01T08:04:21;2.80;;;1.83;;
17024;SDS011;8629;42.496;25.620;2023-03-01T08:06:51;2.17;;;1.70;;
17024;SDS011;8629;42.496;25.620;2023-03-01T08:09:18;1.80;;;1.70;;
17024;SDS011;8629;42.496;25.620;2023-03-01T08:11:44;1.80;;;1.53;;
17024;SDS011;8629;42.496;25.620;2023-03-01T08:14:11;2.97;;;2.23;;
17024;SDS011;8629;42.496;25.620;2023-03-01T08:16:38;2.03;;;1.60;;
17024;SDS011;8629;42.496;25.620;2023-03-01T08:19:05;2.00;;;1.63;;
17024;SDS011;8629;42.496;25.620;2023-03-01T08:21:32;2.20;;;2.00;;
17024;SDS011;8629;42.496;25.620;2023-03-01T08:24:01;14.97;;;7.67;;
17024;SDS011;8629;42.496;25.620;2023-03-01T08:26:28;17.87;;;12.90;;
17024;SDS011;8629;42.496;25.620;2023-03-01T08:28:55;5.10;;;2.93;;
17024;SDS011;8629;42.496;25.620;2023-03-01T08:31:23;5.50;;;3.60;;
17024;SDS011;8629;42.496;25.620;2023-03-01T08:33:52;16.57;;;9.50;;
17024;SDS011;8629;42.496;25.620;2023-03-01T08:36:21;4.80;;;3.60;;
17024;SDS011;8629;42.496;25.620;2023-03-01T08:38:48;3.73;;;3.43;;
17024;SDS011;8629;42.496;25.620;2023-03-01T08:41:16;15.00;;;8.10;;
17024;SDS011;8629;42.496;25.620;2023-03-01T08:43:43;33.70;;;18.63;;
17024;SDS011;8629;42.496;25.620;2023-03-01T08:46:12;33.60;;;17.53;;
17024;SDS011;8629;42.496;25.620;2023-03-01T08:48:39;47.40;;;24.63;;
17024;SDS011;8629;42.496;25.620;2023-03-01T08:51:08;24.00;;;12.90;;
17024;SDS011;8629;42.496;25.620;2023-03-01T08:53:35;63.23;;;34.30;;
17024;SDS011;8629;42.496;25.620;2023-03-01T08:56:02;7.57;;;5.23;;
17024;SDS011;8629;42.496;25.620;2023-03-01T08:58:31;3.13;;;2.20;;
17024;SDS011;8629;42.496;25.620;2023-03-01T09:00:58;4.67;;;2.80;;
17024;SDS011;8629;42.496;25.620;2023-03-01T09:03:25;11.97;;;7.13;;
17024;SDS011;8629;42.496;25.620;2023-03-01T09:05:52;8.00;;;6.27;;
17024;SDS011;8629;42.496;25.620;2023-03-01T09:08:19;11.87;;;8.00;;
17024;SDS011;8629;42.496;25.620;2023-03-01T09:10:46;12.23;;;8.97;;
17024;SDS011;8629;42.496;25.620;2023-03-01T09:13:13;3.77;;;3.17;;
17024;SDS011;8629;42.496;25.620;2023-03-01T09:15:41;10.77;;;8.93;;
17024;SDS011;8629;42.496;25.620;2023-03-01T09:18:08;18.43;;;10.33;;
17024;SDS011;8629;42.496;25.620;2023-03-01T09:20:34;10.97;;;8.00;;
17024;SDS011;8629;42.496;25.620;2023-03-01T09:23:01;3.27;;;2.97;;
17024;SDS011;8629;42.496;25.620;2023-03-01T09:25:28;5.47;;;4.63;;
17024;SDS011;8629;42.496;25.620;2023-03-01T09:27:55;4.87;;;4.47;;
17024;SDS011;8629;42.496;25.620;2023-03-01T09:30:22;4.67;;;3.40;;
17024;SDS011;8629;42.496;25.620;2023-03-01T09:32:50;2.90;;;2.60;;
17024;SDS011;8629;42.496;25.620;2023-03-01T09:35:17;4.00;;;3.47;;
17024;SDS011;8629;42.496;25.620;2023-03-01T09:37:45;3.93;;;3.23;;
17024;SDS011;8629;42.496;25.620;2023-03-01T09:40:12;2.40;;;2.20;;
17024;SDS011;8629;42.496;25.620;2023-03-01T09:42:45;3.07;;;2.83;;
17024;SDS011;8629;42.496;25.620;2023-03-01T09:45:19;3.40;;;3.10;;
17024;SDS011;8629;42.496;25.620;2023-03-01T09:47:52;4.23;;;2.37;;
17024;SDS011;8629;42.496;25.620;2023-03-01T09:50:19;7.20;;;4.63;;
17024;SDS011;8629;42.496;25.620;2023-03-01T09:52:47;2.60;;;2.40;;
17024;SDS011;8629;42.496;25.620;2023-03-01T09:55:17;6.73;;;4.97;;
17024;SDS011;8629;42.496;25.620;2023-03-01T09:57:48;44.80;;;27.90;;
17024;SDS011;8629;42.496;25.620;2023-03-01T10:00:22;35.67;;;22.57;;
17024;SDS011;8629;42.496;25.620;2023-03-01T10:02:56;6.60;;;5.37;;
17024;SDS011;8629;42.496;25.620;2023-03-01T10:05:29;13.87;;;11.23;;
17024;SDS011;8629;42.496;25.620;2023-03-01T10:08:02;12.27;;;8.90;;
17024;SDS011;8629;42.496;25.620;2023-03-01T10:10:46;13.07;;;8.10;;
17024;SDS011;8629;42.496;25.620;2023-03-01T10:13:15;15.33;;;9.17;;
17024;SDS011;8629;42.496;25.620;2023-03-01T10:15:47;7.17;;;5.37;;
17024;SDS011;8629;42.496;25.620;2023-03-01T10:18:22;12.03;;;7.47;;
17024;SDS011;8629;42.496;25.620;2023-03-01T10:20:52;13.03;;;8.90;;
17024;SDS011;8629;42.496;25.620;2023-03-01T10:23:20;7.93;;;6.40;;
17024;SDS011;8629;42.496;25.620;2023-03-01T10:25:54;8.67;;;5.50;;
17024;SDS011;8629;42.496;25.620;2023-03-01T10:28:31;5.53;;;4.40;;
17024;SDS011;8629;42.496;25.620;2023-03-01T10:31:07;10.70;;;7.97;;
17024;SDS011;8629;42.496;25.620;2023-03-01T10:33:40;12.77;;;8.60;;
17024;SDS011;8629;42.496;25.620;2023-03-01T10:36:07;18.00;;;13.53;;
17024;SDS011;8629;42.496;25.620;2023-03-01T10:38:46;64.27;;;33.30;;
17024;SDS011;8629;42.496;25.620;2023-03-01T10:41:20;18.80;;;16.20;;
17024;SDS011;8629;42.496;25.620;2023-03-01T10:43:49;12.57;;;9.73;;
17024;SDS011;8629;42.496;25.620;2023-03-01T10:46:25;5.70;;;5.20;;
17024;SDS011;8629;42.496;25.620;2023-03-01T10:49:12;5.93;;;5.27;;
17024;SDS011;8629;42.496;25.620;2023-03-01T10:51:43;7.47;;;5.00;;
17024;SDS011;8629;42.496;25.620;2023-03-01T10:54:16;8.83;;;7.97;;
17024;SDS011;8629;42.496;25.620;2023-03-01T10:56:48;6.97;;;5.50;;
17024;SDS011;8629;42.496;25.620;2023-03-01T10:59:24;6.07;;;5.47;;
17024;SDS011;8629;42.496;25.620;2023-03-01T11:02:07;3.73;;;3.43;;
17024;SDS011;8629;42.496;25.620;2023-03-01T11:04:52;3.23;;;2.97;;
17024;SDS011;8629;42.496;25.620;2023-03-01T11:07:22;3.30;;;3.10;;
17024;SDS011;8629;42.496;25.620;2023-03-01T11:09:49;4.50;;;3.70;;
17024;SDS011;8629;42.496;25.620;2023-03-01T11:12:16;5.27;;;3.93;;
17024;SDS011;8629;42.496;25.620;2023-03-01T11:14:46;4.90;;;4.50;;
17024;SDS011;8629;42.496;25.620;2023-03-01T11:17:15;3.80;;;3.40;;
17024;SDS011;8629;42.496;25.620;2023-03-01T11:19:44;3.63;;;3.17;;
17024;SDS011;8629;42.496;25.620;2023-03-01T11:22:29;5.10;;;4.70;;
17024;SDS011;8629;42.496;25.620;2023-03-01T11:24:57;5.67;;;5.17;;
17024;SDS011;8629;42.496;25.620;2023-03-01T11:27:25;8.63;;;7.77;;
17024;SDS011;8629;42.496;25.620;2023-03-01T11:29:53;28.47;;;21.13;;
17024;SDS011;8629;42.496;25.620;2023-03-01T11:32:23;14.50;;;13.07;;
17024;SDS011;8629;42.496;25.620;2023-03-01T11:34:55;8.93;;;8.13;;
17024;SDS011;8629;42.496;25.620;2023-03-01T11:37:28;6.20;;;5.33;;
17024;SDS011;8629;42.496;25.620;2023-03-01T11:40:00;7.90;;;5.40;;
17024;SDS011;8629;42.496;25.620;2023-03-01T11:42:37;7.90;;;6.93;;
17024;SDS011;8629;42.496;25.620;2023-03-01T11:45:10;6.57;;;5.97;;
17024;SDS011;8629;42.496;25.620;2023-03-01T11:47:41;6.90;;;6.13;;
17024;SDS011;8629;42.496;25.620;2023-03-01T11:50:16;6.13;;;5.13;;
17024;SDS011;8629;42.496;25.620;2023-03-01T11:52:54;4.60;;;4.30;;
17024;SDS011;8629;42.496;25.620;2023-03-01T11:55:30;4.47;;;4.10;;
17024;SDS011;8629;42.496;25.620;2023-03-01T11:58:26;6.00;;;4.30;;
17024;SDS011;8629;42.496;25.620;2023-03-01T12:01:00;6.60;;;5.30;;
17024;SDS011;8629;42.496;25.620;2023-03-01T12:03:34;5.13;;;4.37;;
17024;SDS011;8629;42.496;25.620;2023-03-01T12:06:23;4.23;;;3.80;;
17024;SDS011;8629;42.496;25.620;2023-03-01T12:09:04;4.13;;;3.83;;
17024;SDS011;8629;42.496;25.620;2023-03-01T12:11:41;5.47;;;4.57;;
17024;SDS011;8629;42.496;25.620;2023-03-01T12:14:21;5.03;;;4.60;;
17024;SDS011;8629;42.496;25.620;2023-03-01T12:17:12;3.70;;;3.20;;
17024;SDS011;8629;42.496;25.620;2023-03-01T12:19:54;3.17;;;2.87;;
17024;SDS011;8629;42.496;25.620;2023-03-01T12:22:29;3.00;;;2.70;;
17024;SDS011;8629;42.496;25.620;2023-03-01T12:25:01;4.70;;;4.07;;
17024;SDS011;8629;42.496;25.620;2023-03-01T12:27:46;3.43;;;3.13;;
17024;SDS011;8629;42.496;25.620;2023-03-01T12:30:25;3.30;;;3.00;;
17024;SDS011;8629;42.496;25.620;2023-03-01T12:33:01;5.40;;;4.90;;
17024;SDS011;8629;42.496;25.620;2023-03-01T12:35:40;3.13;;;2.83;;
17024;SDS011;8629;42.496;25.620;2023-03-01T12:38:19;3.90;;;3.33;;
17024;SDS011;8629;42.496;25.620;2023-03-01T12:41:03;3.00;;;2.47;;
17024;SDS011;8629;42.496;25.620;2023-03-01T12:43:47;21.37;;;14.77;;
17024;SDS011;8629;42.496;25.620;2023-03-01T12:46:25;7.27;;;6.50;;
17024;SDS011;8629;42.496;25.620;2023-03-01T12:49:00;5.13;;;4.63;;
17024;SDS011;8629;42.496;25.620;2023-03-01T12:51:31;3.17;;;2.70;;
17024;SDS011;8629;42.496;25.620;2023-03-01T12:54:00;3.83;;;3.43;;
17024;SDS011;8629;42.496;25.620;2023-03-01T12:56:30;4.03;;;3.73;;
17024;SDS011;8629;42.496;25.620;2023-03-01T12:59:00;3.17;;;2.87;;
17024;SDS011;8629;42.496;25.620;2023-03-01T13:01:33;3.73;;;3.43;;
17024;SDS011;8629;42.496;25.620;2023-03-01T13:04:08;4.10;;;3.73;;
17024;SDS011;8629;42.496;25.620;2023-03-01T13:06:45;8.77;;;7.97;;
17024;SDS011;8629;42.496;25.620;2023-03-01T13:09:20;4.87;;;4.33;;
17024;SDS011;8629;42.496;25.620;2023-03-01T13:11:54;4.90;;;4.40;;
17024;SDS011;8629;42.496;25.620;2023-03-01T13:14:34;6.77;;;6.03;;
17024;SDS011;8629;42.496;25.620;2023-03-01T13:19:59;5.10;;;4.17;;
17024;SDS011;8629;42.496;25.620;2023-03-01T13:22:26;5.13;;;4.40;;
17024;SDS011;8629;42.496;25.620;2023-03-01T13:25:10;20.83;;;14.17;;
17024;SDS011;8629;42.496;25.620;2023-03-01T13:27:40;35.77;;;26.10;;
17024;SDS011;8629;42.496;25.620;2023-03-01T13:39:27;12.47;;;11.20;;
17024;SDS011;8629;42.496;25.620;2023-03-01T13:41:56;13.23;;;11.80;;
17024;SDS011;8629;42.496;25.620;2023-03-01T13:44:30;13.57;;;11.93;;
17024;SDS011;8629;42.496;25.620;2023-03-01T13:47:03;9.60;;;8.60;;
17024;SDS011;8629;42.496;25.620;2023-03-01T13:49:41;9.50;;;8.60;;
17024;SDS011;8629;42.496;25.620;2023-03-01T13:52:21;12.90;;;11.70;;
17024;SDS011;8629;42.496;25.620;2023-03-01T13:55:01;6.97;;;6.00;;
17024;SDS011;8629;42.496;25.620;2023-03-01T13:57:33;6.00;;;5.20;;
17024;SDS011;8629;42.496;25.620;2023-03-01T14:00:03;5.00;;;4.20;;
17024;SDS011;8629;42.496;25.620;2023-03-01T14:02:30;4.83;;;4.40;;
17024;SDS011;8629;42.496;25.620;2023-03-01T14:04:59;8.73;;;7.93;;
17024;SDS011;8629;42.496;25.620;2023-03-01T14:07:27;5.03;;;4.50;;
17024;SDS011;8629;42.496;25.620;2023-03-01T14:09:56;5.23;;;4.73;;
17024;SDS011;8629;42.496;25.620;2023-03-01T14:12:26;6.80;;;5.90;;
17024;SDS011;8629;42.496;25.620;2023-03-01T14:15:02;8.87;;;7.97;;
17024;SDS011;8629;42.496;25.620;2023-03-01T14:20:26;10.73;;;9.53;;
17024;SDS011;8629;42.496;25.620;2023-03-01T14:22:54;8.40;;;6.53;;
17024;SDS011;8629;42.496;25.620;2023-03-01T14:25:26;12.73;;;10.40;;
17024;SDS011;8629;42.496;25.620;2023-03-01T14:27:56;19.27;;;15.80;;
17024;SDS011;8629;42.496;25.620;2023-03-01T14:30:26;10.43;;;9.27;;
17024;SDS011;8629;42.496;25.620;2023-03-01T14:32:58;10.20;;;9.10;;
17024;SDS011;8629;42.496;25.620;2023-03-01T14:35:26;8.50;;;7.33;;
17024;SDS011;8629;42.496;25.620;2023-03-01T14:37:54;7.10;;;6.40;;
17024;SDS011;8629;42.496;25.620;2023-03-01T14:40:25;13.27;;;11.67;;
17024;SDS011;8629;42.496;25.620;2023-03-01T14:42:53;27.37;;;21.93;;
17024;SDS011;8629;42.496;25.620;2023-03-01T14:45:24;29.00;;;22.80;;
17024;SDS011;8629;42.496;25.620;2023-03-01T14:47:53;14.90;;;12.93;;
17024;SDS011;8629;42.496;25.620;2023-03-01T14:50:25;17.13;;;15.37;;
17024;SDS011;8629;42.496;25.620;2023-03-01T14:52:54;14.20;;;12.67;;
17024;SDS011;8629;42.496;25.620;2023-03-01T14:55:24;11.73;;;10.50;;
17024;SDS011;8629;42.496;25.620;2023-03-01T14:57:52;14.77;;;13.20;;
17024;SDS011;8629;42.496;25.620;2023-03-01T15:00:21;12.43;;;11.23;;
17024;SDS011;8629;42.496;25.620;2023-03-01T15:02:50;11.50;;;10.33;;
17024;SDS011;8629;42.496;25.620;2023-03-01T15:05:19;7.93;;;7.13;;
17024;SDS011;8629;42.496;25.620;2023-03-01T15:07:51;5.37;;;4.90;;
17024;SDS011;8629;42.496;25.620;2023-03-01T15:10:19;8.60;;;7.73;;
17024;SDS011;8629;42.496;25.620;2023-03-01T15:12:47;9.07;;;8.13;;
17024;SDS011;8629;42.496;25.620;2023-03-01T15:18:03;7.77;;;6.93;;
17024;SDS011;8629;42.496;25.620;2023-03-01T15:20:32;6.33;;;5.67;;